Terminal Aerodrome Forecast
Issued by NWS

Home | Current Version | Previous Version | Text Only | Print | Product List | Glossary On
Versions: 1 2 3 4 5 6 7 8 9 10 11 12 13 14 15
968
FTPA31 PHFO 261735
TAFHJR
TAF
PHJR 261735Z 2618/2718 05005KT P6SM FEW040
     FM262000 08010G18KT P6SM FEW020 SCT040
     FM270400 VRB03KT P6SM FEW020 SCT040=

USA.gov is the U.S. government's official web portal to all federal, state and local government web resources and services.